createdAt,value
2023-07-25T00:02:02.314Z,60.90
2023-07-25T00:04:29.021Z,60.35
2023-07-25T00:06:55.802Z,60.16
2023-07-25T00:09:22.492Z,60.11
2023-07-25T00:11:49.231Z,60.20
2023-07-25T00:14:15.925Z,60.90
2023-07-25T00:16:44.000Z,60.34
2023-07-25T00:19:10.706Z,60.52
2023-07-25T00:21:37.426Z,60.18
2023-07-25T00:24:04.743Z,60.00
2023-07-25T00:26:31.868Z,59.52
2023-07-25T00:28:58.629Z,59.94
2023-07-25T00:31:25.415Z,59.50
2023-07-25T00:33:53.487Z,59.94
2023-07-25T00:36:20.242Z,59.53
2023-07-25T00:38:46.965Z,60.29
2023-07-25T00:41:13.758Z,60.83
2023-07-25T00:43:40.544Z,60.25
2023-07-25T00:46:07.495Z,60.22
2023-07-25T00:48:34.270Z,60.11
2023-07-25T00:51:03.090Z,59.26
2023-07-25T00:53:29.845Z,60.16
2023-07-25T00:55:56.569Z,60.36
2023-07-25T00:58:23.364Z,61.58
2023-07-25T01:00:50.091Z,62.13
2023-07-25T01:03:16.923Z,62.83
2023-07-25T01:05:45.443Z,63.18
2023-07-25T01:08:13.510Z,63.73
2023-07-25T01:10:40.277Z,64.00
2023-07-25T01:13:07.030Z,63.46
2023-07-25T01:15:33.814Z,62.77
2023-07-25T01:18:00.666Z,62.65
2023-07-25T01:20:27.444Z,61.82
2023-07-25T01:22:54.319Z,61.07
2023-07-25T01:25:22.345Z,61.02
2023-07-25T01:27:49.040Z,61.19
2023-07-25T01:30:15.769Z,61.22
2023-07-25T01:32:42.523Z,62.02
2023-07-25T01:35:09.296Z,60.58
2023-07-25T01:37:35.998Z,59.76
2023-07-25T01:40:02.799Z,59.51
2023-07-25T01:42:30.905Z,59.67
2023-07-25T01:44:57.834Z,59.36
2023-07-25T01:47:24.848Z,58.35
2023-07-25T01:49:51.617Z,58.81
2023-07-25T01:52:18.391Z,58.15
2023-07-25T01:54:45.093Z,57.93
2023-07-25T01:57:12.230Z,58.57
2023-07-25T01:59:40.377Z,59.97
2023-07-25T02:02:07.085Z,60.90
2023-07-25T02:04:33.850Z,61.22
2023-07-25T02:07:00.555Z,61.86
2023-07-25T02:09:27.292Z,62.49
2023-07-25T02:11:54.199Z,61.76
2023-07-25T02:14:20.958Z,61.00
2023-07-25T02:16:49.275Z,59.99
2023-07-25T02:19:16.094Z,59.61
2023-07-25T02:21:42.825Z,59.50
2023-07-25T02:24:09.538Z,58.89
2023-07-25T02:26:36.293Z,58.19
2023-07-25T02:29:02.999Z,57.74
2023-07-25T02:31:30.245Z,57.57
2023-07-25T02:33:58.682Z,57.68
2023-07-25T02:36:25.525Z,57.22
2023-07-25T02:38:52.205Z,57.03
2023-07-25T02:41:18.932Z,57.38
2023-07-25T02:43:45.883Z,58.84
2023-07-25T02:46:12.612Z,58.32
2023-07-25T02:48:40.636Z,58.35
2023-07-25T02:51:10.612Z,58.78
2023-07-25T02:53:37.321Z,58.38
2023-07-25T02:56:04.469Z,58.56
2023-07-25T02:58:31.181Z,57.53
2023-07-25T03:00:57.968Z,57.14
2023-07-25T03:03:24.786Z,56.26
2023-07-25T03:05:51.532Z,55.93
2023-07-25T03:08:19.597Z,55.53
2023-07-25T03:10:46.344Z,54.71
2023-07-25T03:13:13.172Z,53.53
2023-07-25T03:15:39.914Z,52.92
2023-07-25T03:18:06.677Z,53.11
2023-07-25T03:20:33.413Z,53.06
2023-07-25T03:23:00.162Z,53.16
2023-07-25T03:25:28.219Z,52.75
2023-07-25T03:27:54.948Z,52.69
2023-07-25T03:30:21.679Z,52.97
2023-07-25T03:32:48.389Z,52.57
2023-07-25T03:35:15.242Z,51.92
2023-07-25T03:37:42.090Z,51.75
2023-07-25T03:40:09.245Z,52.09
2023-07-25T03:42:37.413Z,52.30
2023-07-25T03:45:04.600Z,52.48
2023-07-25T03:47:31.469Z,51.64
2023-07-25T03:49:58.222Z,51.72
2023-07-25T03:52:24.956Z,51.66
2023-07-25T03:54:51.668Z,51.67
2023-07-25T03:57:18.358Z,51.69
2023-07-25T03:59:46.437Z,51.14
2023-07-25T04:02:13.185Z,52.17
2023-07-25T04:04:40.017Z,53.74
2023-07-25T04:07:06.857Z,55.72
2023-07-25T04:09:33.586Z,56.10
2023-07-25T04:12:00.407Z,56.61
2023-07-25T04:14:27.161Z,56.61
2023-07-25T04:16:55.219Z,56.78
2023-07-25T04:19:22.094Z,57.46
2023-07-25T04:21:48.893Z,57.24
2023-07-25T04:24:15.693Z,56.90
2023-07-25T04:26:42.440Z,56.11
2023-07-25T04:29:09.119Z,55.93
2023-07-25T04:31:35.863Z,55.95
2023-07-25T04:34:03.920Z,56.08
2023-07-25T04:36:30.772Z,56.57
2023-07-25T04:38:57.666Z,56.60
2023-07-25T04:41:24.441Z,56.94
2023-07-25T04:43:51.165Z,57.21
2023-07-25T04:46:17.923Z,57.55
2023-07-25T04:48:44.804Z,58.06
2023-07-25T04:51:12.924Z,58.03
2023-07-25T04:53:39.656Z,58.08
2023-07-25T04:56:06.519Z,58.01
2023-07-25T04:58:33.253Z,57.82
2023-07-25T05:01:00.000Z,58.93
2023-07-25T05:03:26.865Z,58.33
2023-07-25T05:05:55.018Z,58.00
2023-07-25T05:08:23.085Z,56.94
2023-07-25T05:10:51.006Z,56.76
2023-07-25T05:13:17.715Z,56.69
2023-07-25T05:15:44.445Z,56.53
2023-07-25T05:18:11.132Z,56.12
2023-07-25T05:20:37.931Z,55.22
2023-07-25T05:23:04.634Z,53.58
2023-07-25T05:25:32.777Z,53.70
2023-07-25T05:27:59.481Z,53.13
2023-07-25T05:30:26.210Z,53.10
2023-07-25T05:32:52.953Z,51.93
2023-07-25T05:35:19.694Z,51.57
2023-07-25T05:37:46.383Z,51.14
2023-07-25T05:40:13.352Z,51.24
2023-07-25T05:42:41.393Z,50.85
2023-07-25T05:45:08.655Z,50.85
2023-07-25T05:47:35.408Z,49.85
2023-07-25T05:50:02.228Z,49.95
2023-07-25T05:52:28.903Z,50.56
2023-07-25T05:54:55.686Z,51.21
2023-07-25T05:57:22.388Z,51.25
2023-07-25T05:59:50.460Z,52.26
2023-07-25T06:02:17.143Z,51.60
2023-07-25T06:04:43.896Z,52.06
2023-07-25T06:07:10.585Z,52.85
2023-07-25T06:09:37.314Z,52.65
2023-07-25T06:12:04.532Z,52.63
2023-07-25T06:14:31.258Z,51.71
2023-07-25T06:16:59.409Z,52.20
2023-07-25T06:19:26.137Z,52.84
2023-07-25T06:21:52.896Z,52.84
2023-07-25T06:24:19.800Z,52.85
2023-07-25T06:26:46.554Z,51.39
2023-07-25T06:29:13.256Z,50.89
2023-07-25T06:31:39.949Z,50.50
2023-07-25T06:34:07.975Z,50.30
2023-07-25T06:36:34.763Z,49.26
2023-07-25T06:39:01.480Z,50.05
2023-07-25T06:41:28.177Z,50.12
2023-07-25T06:43:59.764Z,49.88
2023-07-25T06:46:26.513Z,50.60
2023-07-25T06:51:21.375Z,50.61
2023-07-25T06:53:48.082Z,49.07
2023-07-25T06:56:14.768Z,48.28
2023-07-25T06:58:41.451Z,48.45
2023-07-25T07:01:08.185Z,48.45
2023-07-25T07:03:34.928Z,47.47
2023-07-25T07:06:01.740Z,46.59
2023-07-25T07:08:29.885Z,47.15
2023-07-25T07:10:56.600Z,47.51
2023-07-25T07:13:23.494Z,46.89
2023-07-25T07:15:50.283Z,47.07
2023-07-25T07:18:17.076Z,46.79
2023-07-25T07:20:46.596Z,46.51
2023-07-25T07:23:13.266Z,46.41
2023-07-25T07:25:41.365Z,46.62
2023-07-25T07:28:08.058Z,47.64
2023-07-25T07:30:34.843Z,48.13
2023-07-25T07:33:01.585Z,47.94
2023-07-25T07:35:28.331Z,48.13
2023-07-25T07:37:55.011Z,48.51
2023-07-25T07:40:21.686Z,48.27
2023-07-25T07:42:49.736Z,49.27
2023-07-25T07:45:16.611Z,48.07
2023-07-25T07:47:43.320Z,47.58
2023-07-25T07:50:10.486Z,47.39
2023-07-25T07:52:44.024Z,47.18
2023-07-25T07:55:11.066Z,48.14
2023-07-25T07:57:41.480Z,47.21
2023-07-25T08:00:10.657Z,47.49
2023-07-25T08:02:40.335Z,47.20
2023-07-25T08:05:07.726Z,47.19
2023-07-25T08:07:34.513Z,45.86
2023-07-25T08:10:01.413Z,46.04
2023-07-25T08:12:28.150Z,47.24
2023-07-25T08:14:54.830Z,48.28
2023-07-25T08:17:22.975Z,48.55
2023-07-25T08:19:49.700Z,47.78
2023-07-25T08:22:16.430Z,46.56
2023-07-25T08:24:43.735Z,45.40
2023-07-25T08:27:10.431Z,45.99
2023-07-25T08:29:39.725Z,45.17
2023-07-25T08:32:07.809Z,46.84
2023-07-25T08:34:35.945Z,47.59
2023-07-25T08:37:02.707Z,48.11
2023-07-25T08:39:29.572Z,46.65
2023-07-25T08:41:56.410Z,46.50
2023-07-25T08:44:23.337Z,46.41
2023-07-25T08:46:51.553Z,46.45
2023-07-25T08:49:18.650Z,46.60
2023-07-25T08:51:46.715Z,46.56
2023-07-25T08:54:17.397Z,46.91
2023-07-25T08:56:45.033Z,48.92
2023-07-25T08:59:11.755Z,48.34
2023-07-25T09:01:38.530Z,48.92
2023-07-25T09:04:05.358Z,49.50
2023-07-25T09:06:32.087Z,50.32
2023-07-25T09:09:00.124Z,50.47
2023-07-25T09:11:26.885Z,52.19
2023-07-25T09:13:53.576Z,50.97
2023-07-25T09:16:20.329Z,51.88
2023-07-25T09:18:47.082Z,53.05
2023-07-25T09:21:14.203Z,52.83
2023-07-25T09:23:40.908Z,53.46
2023-07-25T09:26:09.518Z,52.50
2023-07-25T09:28:36.249Z,52.36
2023-07-25T09:31:02.975Z,51.73
2023-07-25T09:33:30.058Z,52.41
2023-07-25T09:35:57.667Z,52.90
2023-07-25T09:38:24.380Z,52.75
2023-07-25T09:40:51.107Z,52.99
2023-07-25T09:43:25.700Z,54.20
2023-07-25T09:45:52.643Z,54.31
2023-07-25T09:48:19.431Z,54.48
2023-07-25T09:50:46.196Z,53.50
2023-07-25T09:53:13.153Z,52.03
2023-07-25T09:55:39.966Z,52.92
2023-07-25T09:58:06.690Z,52.09
2023-07-25T10:00:34.734Z,52.79
2023-07-25T10:03:01.527Z,53.08
2023-07-25T10:05:28.471Z,53.15
2023-07-25T10:07:56.943Z,51.90
2023-07-25T10:10:25.232Z,53.24
2023-07-25T10:12:52.016Z,52.10
2023-07-25T10:15:18.688Z,53.81
2023-07-25T10:17:47.047Z,52.64
2023-07-25T10:20:20.288Z,52.94
2023-07-25T10:22:46.989Z,52.48
2023-07-25T10:25:19.376Z,52.60
2023-07-25T10:27:46.159Z,52.79
2023-07-25T10:30:22.940Z,51.58
2023-07-25T10:32:51.393Z,51.19
2023-07-25T10:35:18.090Z,50.73
2023-07-25T10:37:45.168Z,50.24
2023-07-25T10:40:13.786Z,50.62
2023-07-25T10:42:59.818Z,50.87
2023-07-25T10:45:50.857Z,51.03
2023-07-25T10:48:35.657Z,51.98
2023-07-25T10:51:03.928Z,52.34
2023-07-25T10:53:30.623Z,50.87
2023-07-25T10:56:10.838Z,51.03
2023-07-25T10:58:38.217Z,50.23
2023-07-25T11:01:04.929Z,50.88
2023-07-25T11:03:33.591Z,50.94
2023-07-25T11:06:37.590Z,50.49
2023-07-25T11:09:07.306Z,50.57
2023-07-25T11:11:34.121Z,50.55
2023-07-25T11:14:02.608Z,50.29
2023-07-25T11:16:29.632Z,50.56
2023-07-25T11:18:57.807Z,51.14
2023-07-25T11:21:24.593Z,50.06
2023-07-25T11:23:51.435Z,50.24
2023-07-25T11:26:18.140Z,50.10
2023-07-25T11:28:44.848Z,50.67
2023-07-25T11:31:11.586Z,50.79
2023-07-25T11:33:38.471Z,50.56
2023-07-25T11:36:06.868Z,51.29
2023-07-25T11:38:35.666Z,49.68
2023-07-25T11:41:02.401Z,50.96
2023-07-25T11:43:29.216Z,50.82
2023-07-25T11:45:55.944Z,49.88
2023-07-25T11:48:22.693Z,51.20
2023-07-25T11:50:49.788Z,51.12
2023-07-25T11:53:17.893Z,51.24
2023-07-25T11:55:46.567Z,50.90
2023-07-25T11:58:16.414Z,51.73
2023-07-25T12:00:43.297Z,51.60
2023-07-25T12:03:17.038Z,53.54
2023-07-25T12:05:43.791Z,54.92
2023-07-25T12:08:10.471Z,54.08
2023-07-25T12:10:38.592Z,54.80
2023-07-25T12:13:05.348Z,55.08
2023-07-25T12:15:44.611Z,54.79
2023-07-25T12:18:14.726Z,54.80
2023-07-25T12:20:52.585Z,54.74
2023-07-25T12:23:28.150Z,56.43
2023-07-25T12:25:56.412Z,58.40
2023-07-25T12:28:23.817Z,61.07
2023-07-25T12:30:50.553Z,59.48
2023-07-25T12:33:17.362Z,58.30
2023-07-25T12:35:44.118Z,60.08
2023-07-25T12:38:10.792Z,59.58
2023-07-25T12:40:37.546Z,58.26
2023-07-25T12:43:05.622Z,56.48
2023-07-25T12:45:32.383Z,57.16
2023-07-25T12:47:59.092Z,55.19
2023-07-25T12:50:25.926Z,55.85
2023-07-25T12:52:52.612Z,53.79
2023-07-25T12:55:19.600Z,53.72
2023-07-25T12:57:46.290Z,53.25
2023-07-25T13:00:15.696Z,51.23
2023-07-25T13:02:42.699Z,50.02
2023-07-25T13:05:09.694Z,49.15
2023-07-25T13:07:36.492Z,49.49
2023-07-25T13:10:03.523Z,47.53
2023-07-25T13:12:30.237Z,46.37
2023-07-25T13:14:56.945Z,46.39
2023-07-25T13:17:24.984Z,48.47
2023-07-25T13:19:51.743Z,46.86
2023-07-25T13:22:18.454Z,45.75
2023-07-25T13:24:45.203Z,45.39
2023-07-25T13:27:11.964Z,43.83
2023-07-25T13:29:38.666Z,42.51
2023-07-25T13:32:06.398Z,42.90
2023-07-25T13:34:34.487Z,42.77
2023-07-25T13:37:01.253Z,44.03
2023-07-25T13:39:27.947Z,43.42
2023-07-25T13:41:54.698Z,42.50
2023-07-25T13:44:21.516Z,41.89
2023-07-25T13:46:48.279Z,41.58
2023-07-25T13:49:15.083Z,43.65
2023-07-25T13:51:43.161Z,43.11
2023-07-25T13:54:09.840Z,42.02
2023-07-25T13:56:38.697Z,42.71
2023-07-25T13:59:05.546Z,43.16
2023-07-25T14:01:32.509Z,40.84
2023-07-25T14:03:59.443Z,39.17
2023-07-25T14:06:26.156Z,39.00
2023-07-25T14:08:56.632Z,40.15
2023-07-25T14:11:23.889Z,41.53
2023-07-25T14:13:50.856Z,41.04
2023-07-25T14:16:17.680Z,40.00
2023-07-25T14:18:44.491Z,40.71
2023-07-25T14:21:11.312Z,39.60
2023-07-25T14:23:38.028Z,38.60
2023-07-25T14:26:06.319Z,38.71
2023-07-25T14:28:33.014Z,38.36
2023-07-25T14:30:59.803Z,39.01
2023-07-25T14:33:26.567Z,37.61
2023-07-25T14:35:53.373Z,36.06
2023-07-25T14:38:20.164Z,36.48
2023-07-25T14:40:46.930Z,35.62
2023-07-25T14:43:14.937Z,36.78
2023-07-25T14:45:41.680Z,37.63
2023-07-25T14:48:08.629Z,36.49
2023-07-25T14:50:35.712Z,36.05
2023-07-25T14:53:02.454Z,36.32
2023-07-25T14:55:29.219Z,36.48
2023-07-25T14:57:55.912Z,36.70
2023-07-25T15:00:24.028Z,36.27
2023-07-25T15:02:50.796Z,37.03
2023-07-25T15:05:17.544Z,36.86
2023-07-25T15:07:44.258Z,35.68
2023-07-25T15:10:11.103Z,34.89
2023-07-25T15:12:37.851Z,34.75
2023-07-25T15:15:06.796Z,34.37
2023-07-25T15:17:35.007Z,35.11
2023-07-25T15:20:03.016Z,35.05
2023-07-25T15:22:29.843Z,35.10
2023-07-25T15:24:56.630Z,35.14
2023-07-25T15:27:23.500Z,33.92
2023-07-25T15:29:50.434Z,35.21
2023-07-25T15:32:17.173Z,33.79
2023-07-25T15:34:45.293Z,33.67
2023-07-25T15:37:12.084Z,32.49
2023-07-25T15:39:38.797Z,33.55
2023-07-25T15:42:06.041Z,34.14
2023-07-25T15:44:33.076Z,34.56
2023-07-25T15:47:00.812Z,35.04
2023-07-25T15:49:27.546Z,35.01
2023-07-25T15:51:56.239Z,35.11
2023-07-25T15:54:23.173Z,35.22
2023-07-25T15:56:49.894Z,35.49
2023-07-25T15:59:16.812Z,36.50
2023-07-25T16:01:43.574Z,35.84
2023-07-25T16:04:10.257Z,35.25
2023-07-25T16:06:36.993Z,35.98
2023-07-25T16:09:05.125Z,35.95
2023-07-25T16:11:32.051Z,36.43
2023-07-25T16:13:58.888Z,36.24
2023-07-25T16:16:25.649Z,36.63
2023-07-25T16:18:52.328Z,36.75
2023-07-25T16:21:19.045Z,37.27
2023-07-25T16:23:45.767Z,37.93
2023-07-25T16:26:13.820Z,37.81
2023-07-25T16:28:40.502Z,37.35
2023-07-25T16:31:29.085Z,37.44
2023-07-25T16:33:53.909Z,36.88
2023-07-25T16:36:20.625Z,36.67
2023-07-25T16:38:47.322Z,37.38
2023-07-25T16:41:15.390Z,37.88
2023-07-25T16:43:42.142Z,37.56
2023-07-25T16:46:08.827Z,38.52
2023-07-25T16:48:35.558Z,42.72
2023-07-25T16:51:02.263Z,51.41
2023-07-25T16:53:28.955Z,55.70
2023-07-25T16:55:55.666Z,61.04
2023-07-25T16:58:23.832Z,61.23
2023-07-25T17:00:50.692Z,58.99
2023-07-25T17:03:17.493Z,58.81
2023-07-25T17:05:44.457Z,56.86
2023-07-25T17:08:11.202Z,55.62
2023-07-25T17:10:37.926Z,54.60
2023-07-25T17:13:04.582Z,55.03
2023-07-25T17:15:32.626Z,54.61
2023-07-25T17:17:59.338Z,54.29
2023-07-25T17:20:26.078Z,54.51
2023-07-25T17:22:52.819Z,53.49
2023-07-25T17:25:19.560Z,53.99
2023-07-25T17:27:46.249Z,53.99
2023-07-25T17:30:12.975Z,53.58
2023-07-25T17:32:41.101Z,54.72
2023-07-25T17:35:09.655Z,54.16
2023-07-25T17:37:37.951Z,53.31
2023-07-25T17:40:06.338Z,54.07
2023-07-25T17:42:33.131Z,53.07
2023-07-25T17:44:59.819Z,53.37
2023-07-25T17:47:26.520Z,53.70
2023-07-25T17:49:54.610Z,53.93
2023-07-25T17:52:21.325Z,53.88
2023-07-25T17:54:48.008Z,53.06
2023-07-25T17:57:14.717Z,53.04
2023-07-25T17:59:41.401Z,53.22
2023-07-25T18:02:08.135Z,53.88
2023-07-25T18:04:34.797Z,53.57
2023-07-25T18:07:02.902Z,53.71
2023-07-25T18:09:29.555Z,54.13
2023-07-25T18:11:57.578Z,54.05
2023-07-25T18:14:24.266Z,54.21
2023-07-25T18:16:50.930Z,54.29
2023-07-25T18:19:17.619Z,54.17
2023-07-25T18:21:44.299Z,53.39
2023-07-25T18:24:12.358Z,53.33
2023-07-25T18:26:39.330Z,53.31
2023-07-25T18:29:06.080Z,52.81
2023-07-25T18:31:32.998Z,51.89
2023-07-25T18:33:59.937Z,52.87
2023-07-25T18:36:26.726Z,53.47
2023-07-25T18:38:53.500Z,52.74
2023-07-25T18:41:21.514Z,53.03
2023-07-25T18:43:48.194Z,53.13
2023-07-25T18:46:14.924Z,53.55
2023-07-25T18:48:41.680Z,52.47
2023-07-25T18:51:08.390Z,53.04
2023-07-25T18:53:35.081Z,51.72
2023-07-25T18:56:01.776Z,52.03
2023-07-25T18:58:29.826Z,52.72
2023-07-25T19:00:56.556Z,53.75
2023-07-25T19:03:23.370Z,54.24
2023-07-25T19:05:51.785Z,53.63
2023-07-25T19:08:18.545Z,53.03
2023-07-25T19:10:45.209Z,52.54
2023-07-25T19:13:11.898Z,52.14
2023-07-25T19:15:39.934Z,52.85
2023-07-25T19:18:06.736Z,53.84
2023-07-25T19:20:33.449Z,54.13
2023-07-25T19:23:07.862Z,54.71
2023-07-25T19:25:42.179Z,54.99
2023-07-25T19:28:08.848Z,54.31
2023-07-25T19:30:37.495Z,55.33
2023-07-25T19:33:05.583Z,54.95
2023-07-25T19:35:32.299Z,55.19
2023-07-25T19:37:58.980Z,54.87
2023-07-25T19:40:25.709Z,55.47
2023-07-25T19:42:52.415Z,54.55
2023-07-25T19:45:19.234Z,54.41
2023-07-25T19:47:45.940Z,54.67
2023-07-25T19:50:14.056Z,53.74
2023-07-25T19:52:40.761Z,53.79
2023-07-25T19:55:08.289Z,52.70
2023-07-25T19:57:35.125Z,48.64
2023-07-25T20:00:01.849Z,49.75
2023-07-25T20:02:28.588Z,49.85
2023-07-25T20:04:55.374Z,50.16
2023-07-25T20:07:23.373Z,50.00
2023-07-25T20:09:50.072Z,51.38
2023-07-25T20:12:16.771Z,50.42
2023-07-25T20:14:43.473Z,53.33
2023-07-25T20:17:10.170Z,50.18
2023-07-25T20:19:36.889Z,52.03
2023-07-25T20:22:03.650Z,52.86
2023-07-25T20:24:31.736Z,51.10
2023-07-25T20:26:58.478Z,51.95
2023-07-25T20:29:25.251Z,51.28
2023-07-25T20:31:51.979Z,50.14
2023-07-25T20:34:18.646Z,50.53
2023-07-25T20:36:45.398Z,50.89
2023-07-25T20:39:12.099Z,51.46
2023-07-25T20:41:40.147Z,52.99
2023-07-25T20:44:06.852Z,53.21
2023-07-25T20:46:33.952Z,52.95
2023-07-25T20:49:00.834Z,52.87
2023-07-25T20:51:27.579Z,53.33
2023-07-25T20:53:54.241Z,53.64
2023-07-25T20:56:20.929Z,54.12
2023-07-25T20:58:49.083Z,53.59
2023-07-25T21:01:15.819Z,53.33
2023-07-25T21:03:42.656Z,53.49
2023-07-25T21:06:09.379Z,53.49
2023-07-25T21:08:36.126Z,53.97
2023-07-25T21:11:02.810Z,53.75
2023-07-25T21:13:29.520Z,54.59
2023-07-25T21:15:57.582Z,55.05
2023-07-25T21:18:24.377Z,55.68
2023-07-25T21:20:51.149Z,56.56
2023-07-25T21:23:17.837Z,56.61
2023-07-25T21:25:44.517Z,58.30
2023-07-25T21:28:11.224Z,58.67
2023-07-25T21:30:37.909Z,58.85
2023-07-25T21:33:06.014Z,59.61
2023-07-25T21:35:32.780Z,60.11
2023-07-25T21:37:59.453Z,60.45
2023-07-25T21:40:26.337Z,59.83
2023-07-25T21:42:53.049Z,58.51
2023-07-25T21:45:19.831Z,58.63
2023-07-25T21:47:46.552Z,58.24
2023-07-25T21:50:14.585Z,58.67
2023-07-25T21:52:41.305Z,58.45
2023-07-25T21:55:08.381Z,58.27
2023-07-25T21:57:35.053Z,58.99
2023-07-25T22:00:02.049Z,57.82
2023-07-25T22:02:38.910Z,57.03
2023-07-25T22:05:06.777Z,57.26
2023-07-25T22:07:34.801Z,56.69
2023-07-25T22:10:01.534Z,56.91
2023-07-25T22:12:28.270Z,56.54
2023-07-25T22:14:54.967Z,57.32
2023-07-25T22:17:21.747Z,57.23
2023-07-25T22:19:48.484Z,57.26
2023-07-25T22:22:15.198Z,57.14
2023-07-25T22:24:43.255Z,57.28
2023-07-25T22:27:09.980Z,56.29
2023-07-25T22:29:36.903Z,56.09
2023-07-25T22:32:04.129Z,55.79
2023-07-25T22:34:30.845Z,56.72
2023-07-25T22:36:57.577Z,55.82
2023-07-25T22:39:24.253Z,55.40
2023-07-25T22:41:52.417Z,54.99
2023-07-25T22:44:19.102Z,54.89
2023-07-25T22:46:45.786Z,54.73
2023-07-25T22:49:12.453Z,54.24
2023-07-25T22:51:39.294Z,54.26
2023-07-25T22:54:05.977Z,53.18
2023-07-25T22:56:33.006Z,54.27
2023-07-25T22:59:02.926Z,55.20
2023-07-25T23:01:31.899Z,54.81
2023-07-25T23:03:58.615Z,54.31
2023-07-25T23:06:25.295Z,53.81
2023-07-25T23:08:52.011Z,53.76
2023-07-25T23:11:18.693Z,52.52
2023-07-25T23:13:45.416Z,51.98
2023-07-25T23:16:13.535Z,51.95
2023-07-25T23:18:40.271Z,52.36
2023-07-25T23:21:06.980Z,52.24
2023-07-25T23:23:33.682Z,51.78
2023-07-25T23:26:00.402Z,51.18
2023-07-25T23:28:27.139Z,51.24
2023-07-25T23:30:53.931Z,51.93
2023-07-25T23:33:23.134Z,52.58
2023-07-25T23:35:49.827Z,52.78
2023-07-25T23:38:16.577Z,52.55
2023-07-25T23:40:43.260Z,51.95
2023-07-25T23:43:09.977Z,51.69
2023-07-25T23:45:36.639Z,51.49
2023-07-25T23:48:03.667Z,50.87
2023-07-25T23:50:31.836Z,50.96
2023-07-25T23:52:58.571Z,51.45
2023-07-25T23:55:26.341Z,51.66
2023-07-25T23:57:53.003Z,50.53
